sensor_id;sensor_type;location;lat;lon;timestamp;P1;durP1;ratioP1;P2;durP2;ratioP2
42586;SDS011;28216;53.362;-6.288;2023-07-31T00:01:52;4.05;;;2.08;;
42586;SDS011;28216;53.362;-6.288;2023-07-31T00:04:18;3.15;;;1.80;;
42586;SDS011;28216;53.362;-6.288;2023-07-31T00:06:43;2.85;;;1.83;;
42586;SDS011;28216;53.362;-6.288;2023-07-31T00:09:11;3.10;;;1.83;;
42586;SDS011;28216;53.362;-6.288;2023-07-31T00:11:36;3.55;;;1.70;;
42586;SDS011;28216;53.362;-6.288;2023-07-31T00:14:07;2.70;;;1.80;;
42586;SDS011;28216;53.362;-6.288;2023-07-31T00:16:35;5.28;;;1.73;;
42586;SDS011;28216;53.362;-6.288;2023-07-31T00:19:00;4.93;;;2.20;;
42586;SDS011;28216;53.362;-6.288;2023-07-31T00:21:26;3.03;;;1.80;;
42586;SDS011;28216;53.362;-6.288;2023-07-31T00:23:51;2.53;;;1.80;;
42586;SDS011;28216;53.362;-6.288;2023-07-31T00:26:17;4.32;;;2.28;;
42586;SDS011;28216;53.362;-6.288;2023-07-31T00:28:42;3.42;;;1.85;;
42586;SDS011;28216;53.362;-6.288;2023-07-31T00:31:07;3.63;;;2.00;;
42586;SDS011;28216;53.362;-6.288;2023-07-31T00:33:34;3.38;;;2.00;;
42586;SDS011;28216;53.362;-6.288;2023-07-31T00:36:00;5.55;;;2.08;;
42586;SDS011;28216;53.362;-6.288;2023-07-31T00:38:25;3.45;;;1.77;;
42586;SDS011;28216;53.362;-6.288;2023-07-31T00:40:51;6.03;;;1.90;;
42586;SDS011;28216;53.362;-6.288;2023-07-31T00:43:16;2.78;;;1.85;;
42586;SDS011;28216;53.362;-6.288;2023-07-31T00:45:41;4.60;;;1.88;;
42586;SDS011;28216;53.362;-6.288;2023-07-31T00:48:07;5.57;;;2.10;;
42586;SDS011;28216;53.362;-6.288;2023-07-31T00:50:33;5.10;;;1.90;;
42586;SDS011;28216;53.362;-6.288;2023-07-31T00:52:59;3.45;;;2.08;;
42586;SDS011;28216;53.362;-6.288;2023-07-31T00:55:25;2.55;;;1.77;;
42586;SDS011;28216;53.362;-6.288;2023-07-31T00:57:51;5.00;;;1.70;;
42586;SDS011;28216;53.362;-6.288;2023-07-31T01:00:17;3.38;;;1.80;;
42586;SDS011;28216;53.362;-6.288;2023-07-31T01:02:43;4.05;;;2.00;;
42586;SDS011;28216;53.362;-6.288;2023-07-31T01:05:09;2.70;;;1.70;;
42586;SDS011;28216;53.362;-6.288;2023-07-31T01:07:39;3.85;;;1.83;;
42586;SDS011;28216;53.362;-6.288;2023-07-31T01:10:20;3.53;;;1.80;;
42586;SDS011;28216;53.362;-6.288;2023-07-31T01:12:52;3.35;;;1.80;;
42586;SDS011;28216;53.362;-6.288;2023-07-31T01:15:18;3.05;;;1.90;;
42586;SDS011;28216;53.362;-6.288;2023-07-31T01:17:44;3.58;;;1.67;;
42586;SDS011;28216;53.362;-6.288;2023-07-31T01:20:11;2.65;;;1.70;;
42586;SDS011;28216;53.362;-6.288;2023-07-31T01:22:54;3.67;;;1.60;;
42586;SDS011;28216;53.362;-6.288;2023-07-31T01:25:50;2.10;;;1.58;;
42586;SDS011;28216;53.362;-6.288;2023-07-31T01:28:20;1.73;;;1.60;;
42586;SDS011;28216;53.362;-6.288;2023-07-31T01:30:48;2.80;;;1.58;;
42586;SDS011;28216;53.362;-6.288;2023-07-31T01:33:15;2.25;;;1.52;;
42586;SDS011;28216;53.362;-6.288;2023-07-31T01:35:43;2.28;;;1.50;;
42586;SDS011;28216;53.362;-6.288;2023-07-31T01:38:09;2.83;;;1.60;;
42586;SDS011;28216;53.362;-6.288;2023-07-31T01:40:35;3.42;;;1.85;;
42586;SDS011;28216;53.362;-6.288;2023-07-31T01:43:00;2.17;;;1.50;;
42586;SDS011;28216;53.362;-6.288;2023-07-31T01:45:26;2.97;;;1.52;;
42586;SDS011;28216;53.362;-6.288;2023-07-31T01:47:51;2.88;;;1.70;;
42586;SDS011;28216;53.362;-6.288;2023-07-31T01:50:17;2.60;;;1.60;;
42586;SDS011;28216;53.362;-6.288;2023-07-31T01:52:42;3.10;;;1.60;;
42586;SDS011;28216;53.362;-6.288;2023-07-31T01:55:08;1.92;;;1.50;;
42586;SDS011;28216;53.362;-6.288;2023-07-31T01:57:33;3.38;;;1.52;;
42586;SDS011;28216;53.362;-6.288;2023-07-31T02:00:01;3.60;;;1.60;;
42586;SDS011;28216;53.362;-6.288;2023-07-31T02:02:27;2.88;;;1.60;;
42586;SDS011;28216;53.362;-6.288;2023-07-31T02:04:52;3.33;;;1.55;;
42586;SDS011;28216;53.362;-6.288;2023-07-31T02:07:18;1.95;;;1.40;;
42586;SDS011;28216;53.362;-6.288;2023-07-31T02:09:43;2.60;;;1.58;;
42586;SDS011;28216;53.362;-6.288;2023-07-31T02:12:09;1.83;;;1.67;;
42586;SDS011;28216;53.362;-6.288;2023-07-31T02:14:34;2.95;;;1.70;;
42586;SDS011;28216;53.362;-6.288;2023-07-31T02:17:00;2.80;;;1.55;;
42586;SDS011;28216;53.362;-6.288;2023-07-31T02:19:25;2.38;;;1.52;;
42586;SDS011;28216;53.362;-6.288;2023-07-31T02:21:51;3.00;;;1.85;;
42586;SDS011;28216;53.362;-6.288;2023-07-31T02:24:16;2.42;;;1.70;;
42586;SDS011;28216;53.362;-6.288;2023-07-31T02:26:42;3.63;;;1.90;;
42586;SDS011;28216;53.362;-6.288;2023-07-31T02:29:08;2.88;;;1.60;;
42586;SDS011;28216;53.362;-6.288;2023-07-31T02:31:33;3.60;;;1.80;;
42586;SDS011;28216;53.362;-6.288;2023-07-31T02:33:59;1.75;;;1.52;;
42586;SDS011;28216;53.362;-6.288;2023-07-31T02:36:24;2.72;;;1.60;;
42586;SDS011;28216;53.362;-6.288;2023-07-31T02:38:50;3.25;;;1.58;;
42586;SDS011;28216;53.362;-6.288;2023-07-31T02:41:15;3.40;;;1.55;;
42586;SDS011;28216;53.362;-6.288;2023-07-31T02:43:40;2.42;;;1.50;;
42586;SDS011;28216;53.362;-6.288;2023-07-31T02:46:06;2.75;;;1.30;;
42586;SDS011;28216;53.362;-6.288;2023-07-31T02:48:31;2.85;;;1.50;;
42586;SDS011;28216;53.362;-6.288;2023-07-31T02:50:57;2.13;;;1.58;;
42586;SDS011;28216;53.362;-6.288;2023-07-31T02:53:22;2.85;;;1.60;;
42586;SDS011;28216;53.362;-6.288;2023-07-31T02:55:48;2.60;;;1.60;;
42586;SDS011;28216;53.362;-6.288;2023-07-31T02:58:13;3.28;;;1.70;;
42586;SDS011;28216;53.362;-6.288;2023-07-31T03:00:42;2.17;;;1.42;;
42586;SDS011;28216;53.362;-6.288;2023-07-31T03:03:08;2.90;;;1.25;;
42586;SDS011;28216;53.362;-6.288;2023-07-31T03:05:33;1.77;;;1.25;;
42586;SDS011;28216;53.362;-6.288;2023-07-31T03:07:59;2.00;;;1.30;;
42586;SDS011;28216;53.362;-6.288;2023-07-31T03:10:24;1.92;;;1.30;;
42586;SDS011;28216;53.362;-6.288;2023-07-31T03:12:50;3.55;;;1.27;;
42586;SDS011;28216;53.362;-6.288;2023-07-31T03:15:15;3.05;;;1.40;;
42586;SDS011;28216;53.362;-6.288;2023-07-31T03:17:41;1.50;;;1.15;;
42586;SDS011;28216;53.362;-6.288;2023-07-31T03:20:06;1.88;;;1.10;;
42586;SDS011;28216;53.362;-6.288;2023-07-31T03:22:33;1.85;;;1.20;;
42586;SDS011;28216;53.362;-6.288;2023-07-31T03:25:00;3.45;;;1.33;;
42586;SDS011;28216;53.362;-6.288;2023-07-31T03:27:26;4.38;;;1.23;;
42586;SDS011;28216;53.362;-6.288;2023-07-31T03:29:51;2.55;;;1.15;;
42586;SDS011;28216;53.362;-6.288;2023-07-31T03:32:17;2.53;;;1.30;;
42586;SDS011;28216;53.362;-6.288;2023-07-31T03:34:42;1.50;;;1.10;;
42586;SDS011;28216;53.362;-6.288;2023-07-31T03:37:08;1.30;;;1.00;;
42586;SDS011;28216;53.362;-6.288;2023-07-31T03:39:34;1.25;;;1.00;;
42586;SDS011;28216;53.362;-6.288;2023-07-31T03:42:00;1.40;;;1.10;;
42586;SDS011;28216;53.362;-6.288;2023-07-31T03:44:25;1.67;;;1.00;;
42586;SDS011;28216;53.362;-6.288;2023-07-31T03:46:51;1.90;;;1.10;;
42586;SDS011;28216;53.362;-6.288;2023-07-31T03:49:16;1.25;;;1.15;;
42586;SDS011;28216;53.362;-6.288;2023-07-31T03:51:42;1.63;;;1.20;;
42586;SDS011;28216;53.362;-6.288;2023-07-31T03:54:07;1.40;;;1.00;;
42586;SDS011;28216;53.362;-6.288;2023-07-31T03:56:33;1.15;;;0.80;;
42586;SDS011;28216;53.362;-6.288;2023-07-31T03:58:59;1.40;;;1.02;;
42586;SDS011;28216;53.362;-6.288;2023-07-31T04:01:24;0.98;;;0.90;;
42586;SDS011;28216;53.362;-6.288;2023-07-31T04:03:50;1.50;;;0.90;;
42586;SDS011;28216;53.362;-6.288;2023-07-31T04:06:15;3.33;;;1.42;;
42586;SDS011;28216;53.362;-6.288;2023-07-31T04:08:43;1.65;;;1.02;;
42586;SDS011;28216;53.362;-6.288;2023-07-31T04:11:09;2.80;;;1.10;;
42586;SDS011;28216;53.362;-6.288;2023-07-31T04:13:35;2.97;;;1.10;;
42586;SDS011;28216;53.362;-6.288;2023-07-31T04:16:00;2.90;;;1.10;;
42586;SDS011;28216;53.362;-6.288;2023-07-31T04:18:26;1.95;;;0.90;;
42586;SDS011;28216;53.362;-6.288;2023-07-31T04:20:51;1.60;;;1.30;;
42586;SDS011;28216;53.362;-6.288;2023-07-31T04:23:17;1.50;;;1.00;;
42586;SDS011;28216;53.362;-6.288;2023-07-31T04:25:42;2.70;;;1.10;;
42586;SDS011;28216;53.362;-6.288;2023-07-31T04:28:07;0.80;;;0.80;;
42586;SDS011;28216;53.362;-6.288;2023-07-31T04:30:33;1.10;;;1.00;;
42586;SDS011;28216;53.362;-6.288;2023-07-31T04:32:58;0.95;;;0.93;;
42586;SDS011;28216;53.362;-6.288;2023-07-31T04:35:24;2.30;;;0.98;;
42586;SDS011;28216;53.362;-6.288;2023-07-31T04:37:50;1.33;;;1.10;;
42586;SDS011;28216;53.362;-6.288;2023-07-31T04:40:15;1.35;;;1.17;;
42586;SDS011;28216;53.362;-6.288;2023-07-31T04:42:41;3.25;;;1.17;;
42586;SDS011;28216;53.362;-6.288;2023-07-31T04:45:08;1.15;;;1.00;;
42586;SDS011;28216;53.362;-6.288;2023-07-31T04:47:34;2.33;;;1.10;;
42586;SDS011;28216;53.362;-6.288;2023-07-31T04:49:59;2.67;;;1.08;;
42586;SDS011;28216;53.362;-6.288;2023-07-31T04:52:24;1.23;;;1.10;;
42586;SDS011;28216;53.362;-6.288;2023-07-31T04:54:50;3.05;;;1.20;;
42586;SDS011;28216;53.362;-6.288;2023-07-31T04:57:15;1.80;;;1.10;;
42586;SDS011;28216;53.362;-6.288;2023-07-31T04:59:41;1.08;;;1.00;;
42586;SDS011;28216;53.362;-6.288;2023-07-31T05:02:07;2.03;;;1.00;;
42586;SDS011;28216;53.362;-6.288;2023-07-31T05:04:33;1.13;;;1.02;;
42586;SDS011;28216;53.362;-6.288;2023-07-31T05:06:59;1.95;;;1.00;;
42586;SDS011;28216;53.362;-6.288;2023-07-31T05:09:24;2.22;;;1.10;;
42586;SDS011;28216;53.362;-6.288;2023-07-31T05:11:50;2.60;;;1.45;;
42586;SDS011;28216;53.362;-6.288;2023-07-31T05:14:15;2.13;;;1.25;;
42586;SDS011;28216;53.362;-6.288;2023-07-31T05:16:40;1.52;;;1.17;;
42586;SDS011;28216;53.362;-6.288;2023-07-31T05:19:06;2.63;;;1.15;;
42586;SDS011;28216;53.362;-6.288;2023-07-31T05:21:32;1.95;;;1.10;;
42586;SDS011;28216;53.362;-6.288;2023-07-31T05:23:57;4.45;;;1.30;;
42586;SDS011;28216;53.362;-6.288;2023-07-31T05:26:22;3.22;;;1.50;;
42586;SDS011;28216;53.362;-6.288;2023-07-31T05:28:48;4.00;;;1.55;;
42586;SDS011;28216;53.362;-6.288;2023-07-31T05:31:14;2.67;;;1.58;;
42586;SDS011;28216;53.362;-6.288;2023-07-31T05:33:39;3.10;;;1.42;;
42586;SDS011;28216;53.362;-6.288;2023-07-31T05:36:04;2.65;;;1.40;;
42586;SDS011;28216;53.362;-6.288;2023-07-31T05:38:30;4.38;;;1.63;;
42586;SDS011;28216;53.362;-6.288;2023-07-31T05:40:55;2.17;;;1.60;;
42586;SDS011;28216;53.362;-6.288;2023-07-31T05:43:21;2.67;;;1.77;;
42586;SDS011;28216;53.362;-6.288;2023-07-31T05:45:46;5.15;;;1.58;;
42586;SDS011;28216;53.362;-6.288;2023-07-31T05:48:12;4.45;;;1.98;;
42586;SDS011;28216;53.362;-6.288;2023-07-31T05:50:37;3.10;;;1.88;;
42586;SDS011;28216;53.362;-6.288;2023-07-31T05:53:06;3.80;;;2.08;;
42586;SDS011;28216;53.362;-6.288;2023-07-31T05:55:33;4.03;;;1.55;;
42586;SDS011;28216;53.362;-6.288;2023-07-31T05:57:58;3.88;;;1.80;;
42586;SDS011;28216;53.362;-6.288;2023-07-31T06:00:24;3.35;;;1.80;;
42586;SDS011;28216;53.362;-6.288;2023-07-31T06:02:49;5.90;;;2.10;;
42586;SDS011;28216;53.362;-6.288;2023-07-31T06:05:15;4.00;;;2.10;;
42586;SDS011;28216;53.362;-6.288;2023-07-31T06:07:40;3.60;;;2.35;;
42586;SDS011;28216;53.362;-6.288;2023-07-31T06:10:06;4.43;;;2.25;;
42586;SDS011;28216;53.362;-6.288;2023-07-31T06:12:32;3.22;;;2.10;;
42586;SDS011;28216;53.362;-6.288;2023-07-31T06:14:58;3.47;;;1.98;;
42586;SDS011;28216;53.362;-6.288;2023-07-31T06:17:23;4.30;;;2.20;;
42586;SDS011;28216;53.362;-6.288;2023-07-31T06:19:49;5.40;;;2.40;;
42586;SDS011;28216;53.362;-6.288;2023-07-31T06:22:16;4.00;;;2.55;;
42586;SDS011;28216;53.362;-6.288;2023-07-31T06:24:42;3.92;;;2.22;;
42586;SDS011;28216;53.362;-6.288;2023-07-31T06:37:12;5.55;;;2.72;;
42586;SDS011;28216;53.362;-6.288;2023-07-31T06:39:39;7.03;;;2.75;;
42586;SDS011;28216;53.362;-6.288;2023-07-31T06:42:05;5.03;;;2.58;;
42586;SDS011;28216;53.362;-6.288;2023-07-31T06:44:30;4.65;;;2.45;;
42586;SDS011;28216;53.362;-6.288;2023-07-31T06:46:56;5.55;;;2.53;;
42586;SDS011;28216;53.362;-6.288;2023-07-31T06:49:21;6.82;;;2.70;;
42586;SDS011;28216;53.362;-6.288;2023-07-31T06:51:47;5.57;;;2.72;;
42586;SDS011;28216;53.362;-6.288;2023-07-31T06:54:12;5.63;;;2.42;;
42586;SDS011;28216;53.362;-6.288;2023-07-31T06:56:38;7.00;;;2.70;;
42586;SDS011;28216;53.362;-6.288;2023-07-31T06:59:03;6.40;;;2.85;;
42586;SDS011;28216;53.362;-6.288;2023-07-31T07:01:28;5.30;;;2.47;;
42586;SDS011;28216;53.362;-6.288;2023-07-31T07:03:54;6.25;;;2.50;;
42586;SDS011;28216;53.362;-6.288;2023-07-31T07:06:19;6.10;;;2.20;;
42586;SDS011;28216;53.362;-6.288;2023-07-31T07:08:45;5.80;;;2.40;;
42586;SDS011;28216;53.362;-6.288;2023-07-31T07:11:11;5.25;;;2.58;;
42586;SDS011;28216;53.362;-6.288;2023-07-31T07:13:36;7.75;;;2.80;;
42586;SDS011;28216;53.362;-6.288;2023-07-31T07:16:02;10.20;;;2.78;;
42586;SDS011;28216;53.362;-6.288;2023-07-31T07:18:27;8.95;;;2.40;;
42586;SDS011;28216;53.362;-6.288;2023-07-31T07:20:53;5.32;;;2.38;;
42586;SDS011;28216;53.362;-6.288;2023-07-31T07:23:19;5.03;;;2.50;;
42586;SDS011;28216;53.362;-6.288;2023-07-31T07:25:46;5.30;;;2.47;;
42586;SDS011;28216;53.362;-6.288;2023-07-31T07:28:12;6.07;;;2.90;;
42586;SDS011;28216;53.362;-6.288;2023-07-31T07:30:37;8.82;;;2.67;;
42586;SDS011;28216;53.362;-6.288;2023-07-31T07:33:03;6.90;;;2.50;;
42586;SDS011;28216;53.362;-6.288;2023-07-31T07:35:29;7.68;;;2.80;;
42586;SDS011;28216;53.362;-6.288;2023-07-31T07:37:54;5.38;;;2.50;;
42586;SDS011;28216;53.362;-6.288;2023-07-31T07:40:20;4.30;;;2.47;;
42586;SDS011;28216;53.362;-6.288;2023-07-31T07:42:46;7.07;;;2.58;;
42586;SDS011;28216;53.362;-6.288;2023-07-31T07:45:12;6.78;;;2.40;;
42586;SDS011;28216;53.362;-6.288;2023-07-31T07:47:38;6.03;;;2.42;;
42586;SDS011;28216;53.362;-6.288;2023-07-31T07:50:05;3.28;;;1.80;;
42586;SDS011;28216;53.362;-6.288;2023-07-31T07:52:31;5.38;;;2.10;;
42586;SDS011;28216;53.362;-6.288;2023-07-31T07:54:57;9.00;;;2.60;;
42586;SDS011;28216;53.362;-6.288;2023-07-31T07:57:22;5.88;;;2.42;;
42586;SDS011;28216;53.362;-6.288;2023-07-31T07:59:48;4.88;;;2.03;;
42586;SDS011;28216;53.362;-6.288;2023-07-31T08:02:13;4.55;;;2.30;;
42586;SDS011;28216;53.362;-6.288;2023-07-31T08:04:39;5.65;;;2.10;;
42586;SDS011;28216;53.362;-6.288;2023-07-31T08:07:05;5.13;;;2.10;;
42586;SDS011;28216;53.362;-6.288;2023-07-31T08:09:30;5.78;;;2.20;;
42586;SDS011;28216;53.362;-6.288;2023-07-31T08:11:59;5.05;;;2.00;;
42586;SDS011;28216;53.362;-6.288;2023-07-31T08:14:28;7.97;;;2.13;;
42586;SDS011;28216;53.362;-6.288;2023-07-31T08:16:55;6.18;;;2.03;;
42586;SDS011;28216;53.362;-6.288;2023-07-31T08:19:21;3.63;;;1.80;;
42586;SDS011;28216;53.362;-6.288;2023-07-31T08:21:47;5.13;;;2.10;;
42586;SDS011;28216;53.362;-6.288;2023-07-31T08:24:14;5.97;;;2.90;;
42586;SDS011;28216;53.362;-6.288;2023-07-31T08:26:41;5.63;;;1.92;;
42586;SDS011;28216;53.362;-6.288;2023-07-31T08:29:07;5.93;;;1.98;;
42586;SDS011;28216;53.362;-6.288;2023-07-31T08:31:33;5.65;;;1.90;;
42586;SDS011;28216;53.362;-6.288;2023-07-31T08:33:59;6.55;;;2.47;;
42586;SDS011;28216;53.362;-6.288;2023-07-31T08:36:25;6.28;;;2.20;;
42586;SDS011;28216;53.362;-6.288;2023-07-31T08:38:54;7.35;;;2.60;;
42586;SDS011;28216;53.362;-6.288;2023-07-31T08:41:20;9.18;;;2.50;;
42586;SDS011;28216;53.362;-6.288;2023-07-31T08:43:46;6.80;;;2.63;;
42586;SDS011;28216;53.362;-6.288;2023-07-31T08:46:12;12.63;;;3.45;;
42586;SDS011;28216;53.362;-6.288;2023-07-31T08:48:39;12.35;;;3.20;;
42586;SDS011;28216;53.362;-6.288;2023-07-31T08:51:07;12.57;;;3.08;;
42586;SDS011;28216;53.362;-6.288;2023-07-31T08:53:33;7.88;;;2.47;;
42586;SDS011;28216;53.362;-6.288;2023-07-31T08:55:59;7.63;;;2.50;;
42586;SDS011;28216;53.362;-6.288;2023-07-31T08:58:31;7.75;;;2.60;;
42586;SDS011;28216;53.362;-6.288;2023-07-31T09:00:58;12.48;;;3.13;;
42586;SDS011;28216;53.362;-6.288;2023-07-31T09:03:29;10.52;;;3.47;;
42586;SDS011;28216;53.362;-6.288;2023-07-31T09:05:59;11.95;;;3.20;;
42586;SDS011;28216;53.362;-6.288;2023-07-31T09:08:25;11.73;;;2.92;;
42586;SDS011;28216;53.362;-6.288;2023-07-31T09:10:56;10.38;;;3.03;;
42586;SDS011;28216;53.362;-6.288;2023-07-31T09:13:26;7.47;;;2.47;;
42586;SDS011;28216;53.362;-6.288;2023-07-31T09:15:53;9.25;;;2.85;;
42586;SDS011;28216;53.362;-6.288;2023-07-31T09:18:18;8.20;;;3.10;;
42586;SDS011;28216;53.362;-6.288;2023-07-31T09:20:59;10.40;;;2.63;;
42586;SDS011;28216;53.362;-6.288;2023-07-31T09:23:45;9.85;;;2.78;;
42586;SDS011;28216;53.362;-6.288;2023-07-31T09:26:28;7.80;;;2.80;;
42586;SDS011;28216;53.362;-6.288;2023-07-31T09:28:58;9.10;;;2.80;;
42586;SDS011;28216;53.362;-6.288;2023-07-31T09:31:41;9.50;;;2.97;;
42586;SDS011;28216;53.362;-6.288;2023-07-31T09:34:07;11.52;;;2.80;;
42586;SDS011;28216;53.362;-6.288;2023-07-31T09:39:47;8.93;;;2.60;;
42586;SDS011;28216;53.362;-6.288;2023-07-31T09:42:13;10.95;;;3.03;;
42586;SDS011;28216;53.362;-6.288;2023-07-31T09:44:39;9.38;;;2.80;;
42586;SDS011;28216;53.362;-6.288;2023-07-31T09:47:06;9.57;;;2.88;;
42586;SDS011;28216;53.362;-6.288;2023-07-31T09:49:31;7.78;;;2.50;;
42586;SDS011;28216;53.362;-6.288;2023-07-31T09:51:57;10.27;;;2.80;;
42586;SDS011;28216;53.362;-6.288;2023-07-31T09:54:22;6.97;;;2.80;;
42586;SDS011;28216;53.362;-6.288;2023-07-31T09:56:48;9.48;;;2.90;;
42586;SDS011;28216;53.362;-6.288;2023-07-31T09:59:18;8.07;;;2.72;;
42586;SDS011;28216;53.362;-6.288;2023-07-31T10:01:45;8.55;;;2.92;;
42586;SDS011;28216;53.362;-6.288;2023-07-31T10:04:11;9.05;;;2.60;;
42586;SDS011;28216;53.362;-6.288;2023-07-31T10:06:38;9.18;;;2.90;;
42586;SDS011;28216;53.362;-6.288;2023-07-31T10:09:06;8.75;;;3.03;;
42586;SDS011;28216;53.362;-6.288;2023-07-31T10:11:34;12.70;;;3.30;;
42586;SDS011;28216;53.362;-6.288;2023-07-31T10:14:06;11.02;;;2.85;;
42586;SDS011;28216;53.362;-6.288;2023-07-31T10:16:33;10.43;;;3.17;;
42586;SDS011;28216;53.362;-6.288;2023-07-31T10:21:45;12.52;;;3.38;;
42586;SDS011;28216;53.362;-6.288;2023-07-31T10:24:13;13.85;;;3.05;;
42586;SDS011;28216;53.362;-6.288;2023-07-31T10:26:40;9.93;;;2.85;;
42586;SDS011;28216;53.362;-6.288;2023-07-31T10:29:06;9.57;;;2.80;;
42586;SDS011;28216;53.362;-6.288;2023-07-31T10:31:32;9.68;;;2.80;;
42586;SDS011;28216;53.362;-6.288;2023-07-31T10:33:59;10.43;;;3.00;;
42586;SDS011;28216;53.362;-6.288;2023-07-31T10:36:25;7.88;;;2.67;;
42586;SDS011;28216;53.362;-6.288;2023-07-31T10:38:54;9.73;;;2.83;;
42586;SDS011;28216;53.362;-6.288;2023-07-31T10:41:27;8.75;;;2.97;;
42586;SDS011;28216;53.362;-6.288;2023-07-31T10:44:03;11.07;;;3.08;;
42586;SDS011;28216;53.362;-6.288;2023-07-31T10:46:32;11.93;;;3.83;;
42586;SDS011;28216;53.362;-6.288;2023-07-31T10:49:01;8.93;;;3.35;;
42586;SDS011;28216;53.362;-6.288;2023-07-31T11:01:13;9.68;;;3.20;;
42586;SDS011;28216;53.362;-6.288;2023-07-31T11:07:01;10.15;;;3.80;;
42586;SDS011;28216;53.362;-6.288;2023-07-31T11:16:22;8.70;;;2.72;;
42586;SDS011;28216;53.362;-6.288;2023-07-31T11:25:32;8.18;;;3.05;;
42586;SDS011;28216;53.362;-6.288;2023-07-31T11:37:20;7.50;;;2.63;;
42586;SDS011;28216;53.362;-6.288;2023-07-31T11:39:58;8.30;;;2.80;;
42586;SDS011;28216;53.362;-6.288;2023-07-31T11:42:24;8.15;;;2.65;;
42586;SDS011;28216;53.362;-6.288;2023-07-31T11:44:50;11.30;;;2.97;;
42586;SDS011;28216;53.362;-6.288;2023-07-31T11:47:16;7.78;;;2.85;;
42586;SDS011;28216;53.362;-6.288;2023-07-31T11:49:43;9.50;;;2.88;;
42586;SDS011;28216;53.362;-6.288;2023-07-31T11:52:10;10.02;;;2.90;;
42586;SDS011;28216;53.362;-6.288;2023-07-31T11:54:37;8.73;;;2.78;;
42586;SDS011;28216;53.362;-6.288;2023-07-31T11:57:03;9.25;;;2.78;;
42586;SDS011;28216;53.362;-6.288;2023-07-31T11:59:29;8.20;;;2.53;;
42586;SDS011;28216;53.362;-6.288;2023-07-31T12:04:25;5.97;;;2.25;;
42586;SDS011;28216;53.362;-6.288;2023-07-31T12:06:52;7.13;;;2.63;;
42586;SDS011;28216;53.362;-6.288;2023-07-31T12:09:18;4.22;;;2.22;;
42586;SDS011;28216;53.362;-6.288;2023-07-31T12:11:44;4.70;;;2.10;;
42586;SDS011;28216;53.362;-6.288;2023-07-31T12:17:07;3.67;;;1.67;;
42586;SDS011;28216;53.362;-6.288;2023-07-31T12:19:33;5.13;;;1.70;;
42586;SDS011;28216;53.362;-6.288;2023-07-31T12:22:00;3.95;;;1.80;;
42586;SDS011;28216;53.362;-6.288;2023-07-31T12:24:26;4.32;;;2.10;;
42586;SDS011;28216;53.362;-6.288;2023-07-31T12:26:52;3.70;;;1.80;;
42586;SDS011;28216;53.362;-6.288;2023-07-31T12:29:20;4.22;;;1.90;;
42586;SDS011;28216;53.362;-6.288;2023-07-31T12:31:46;5.22;;;2.00;;
42586;SDS011;28216;53.362;-6.288;2023-07-31T12:34:18;3.20;;;1.85;;
42586;SDS011;28216;53.362;-6.288;2023-07-31T12:37:05;5.00;;;1.90;;
42586;SDS011;28216;53.362;-6.288;2023-07-31T12:39:31;5.50;;;1.88;;
42586;SDS011;28216;53.362;-6.288;2023-07-31T12:41:56;3.83;;;2.00;;
42586;SDS011;28216;53.362;-6.288;2023-07-31T12:44:22;5.45;;;2.10;;
42586;SDS011;28216;53.362;-6.288;2023-07-31T12:46:50;4.22;;;1.80;;
42586;SDS011;28216;53.362;-6.288;2023-07-31T12:49:16;4.35;;;1.88;;
42586;SDS011;28216;53.362;-6.288;2023-07-31T12:51:42;4.93;;;2.15;;
42586;SDS011;28216;53.362;-6.288;2023-07-31T12:54:07;4.55;;;1.90;;
42586;SDS011;28216;53.362;-6.288;2023-07-31T12:59:19;5.07;;;2.47;;
42586;SDS011;28216;53.362;-6.288;2023-07-31T13:01:45;3.97;;;2.08;;
42586;SDS011;28216;53.362;-6.288;2023-07-31T13:04:10;4.63;;;2.13;;
42586;SDS011;28216;53.362;-6.288;2023-07-31T13:06:35;3.95;;;2.17;;
42586;SDS011;28216;53.362;-6.288;2023-07-31T13:09:01;4.15;;;2.00;;
42586;SDS011;28216;53.362;-6.288;2023-07-31T13:11:27;5.47;;;2.30;;
42586;SDS011;28216;53.362;-6.288;2023-07-31T13:13:52;4.15;;;2.05;;
42586;SDS011;28216;53.362;-6.288;2023-07-31T13:16:18;5.10;;;2.08;;
42586;SDS011;28216;53.362;-6.288;2023-07-31T13:18:43;3.85;;;2.20;;
42586;SDS011;28216;53.362;-6.288;2023-07-31T13:21:09;5.45;;;2.20;;
42586;SDS011;28216;53.362;-6.288;2023-07-31T13:23:34;6.40;;;2.30;;
42586;SDS011;28216;53.362;-6.288;2023-07-31T13:26:00;5.50;;;2.50;;
42586;SDS011;28216;53.362;-6.288;2023-07-31T13:28:25;4.47;;;1.90;;
42586;SDS011;28216;53.362;-6.288;2023-07-31T13:30:51;4.53;;;2.08;;
42586;SDS011;28216;53.362;-6.288;2023-07-31T13:33:16;4.88;;;2.30;;
42586;SDS011;28216;53.362;-6.288;2023-07-31T13:35:42;5.40;;;2.10;;
42586;SDS011;28216;53.362;-6.288;2023-07-31T13:38:07;7.93;;;2.30;;
42586;SDS011;28216;53.362;-6.288;2023-07-31T13:40:33;3.45;;;1.77;;
42586;SDS011;28216;53.362;-6.288;2023-07-31T13:42:58;4.75;;;2.22;;
42586;SDS011;28216;53.362;-6.288;2023-07-31T13:45:24;5.45;;;2.28;;
42586;SDS011;28216;53.362;-6.288;2023-07-31T13:47:49;6.55;;;3.13;;
42586;SDS011;28216;53.362;-6.288;2023-07-31T13:50:16;4.53;;;2.08;;
42586;SDS011;28216;53.362;-6.288;2023-07-31T13:52:44;4.78;;;2.40;;
42586;SDS011;28216;53.362;-6.288;2023-07-31T13:55:09;5.63;;;2.92;;
42586;SDS011;28216;53.362;-6.288;2023-07-31T13:57:35;7.22;;;2.45;;
42586;SDS011;28216;53.362;-6.288;2023-07-31T14:00:00;5.45;;;2.20;;
42586;SDS011;28216;53.362;-6.288;2023-07-31T14:02:26;6.43;;;2.38;;
42586;SDS011;28216;53.362;-6.288;2023-07-31T14:04:51;6.65;;;2.70;;
42586;SDS011;28216;53.362;-6.288;2023-07-31T14:07:18;5.50;;;2.40;;
42586;SDS011;28216;53.362;-6.288;2023-07-31T14:09:47;4.65;;;2.25;;
42586;SDS011;28216;53.362;-6.288;2023-07-31T14:12:17;7.43;;;2.40;;
42586;SDS011;28216;53.362;-6.288;2023-07-31T14:14:42;5.05;;;2.15;;
42586;SDS011;28216;53.362;-6.288;2023-07-31T14:17:08;5.72;;;2.10;;
42586;SDS011;28216;53.362;-6.288;2023-07-31T14:19:36;5.45;;;2.03;;
42586;SDS011;28216;53.362;-6.288;2023-07-31T14:22:01;3.50;;;1.85;;
42586;SDS011;28216;53.362;-6.288;2023-07-31T14:24:27;5.22;;;2.10;;
42586;SDS011;28216;53.362;-6.288;2023-07-31T14:26:53;4.20;;;1.95;;
42586;SDS011;28216;53.362;-6.288;2023-07-31T14:29:19;4.30;;;2.03;;
42586;SDS011;28216;53.362;-6.288;2023-07-31T14:31:44;3.22;;;1.80;;
42586;SDS011;28216;53.362;-6.288;2023-07-31T14:34:10;6.22;;;2.20;;
42586;SDS011;28216;53.362;-6.288;2023-07-31T14:36:38;5.80;;;2.30;;
42586;SDS011;28216;53.362;-6.288;2023-07-31T14:39:04;5.50;;;2.70;;
42586;SDS011;28216;53.362;-6.288;2023-07-31T14:41:29;4.70;;;2.08;;
42586;SDS011;28216;53.362;-6.288;2023-07-31T14:46:59;5.47;;;2.00;;
42586;SDS011;28216;53.362;-6.288;2023-07-31T14:49:24;4.05;;;1.88;;
42586;SDS011;28216;53.362;-6.288;2023-07-31T14:51:53;5.00;;;2.53;;
42586;SDS011;28216;53.362;-6.288;2023-07-31T14:54:19;4.88;;;1.80;;
42586;SDS011;28216;53.362;-6.288;2023-07-31T14:56:44;6.65;;;2.00;;
42586;SDS011;28216;53.362;-6.288;2023-07-31T14:59:23;6.28;;;1.83;;
42586;SDS011;28216;53.362;-6.288;2023-07-31T15:01:49;4.40;;;1.92;;
42586;SDS011;28216;53.362;-6.288;2023-07-31T15:10:57;3.67;;;1.40;;
42586;SDS011;28216;53.362;-6.288;2023-07-31T15:13:23;4.90;;;1.83;;
42586;SDS011;28216;53.362;-6.288;2023-07-31T15:25:27;3.25;;;1.58;;
42586;SDS011;28216;53.362;-6.288;2023-07-31T15:27:53;3.92;;;1.63;;
42586;SDS011;28216;53.362;-6.288;2023-07-31T15:30:18;5.90;;;2.90;;
42586;SDS011;28216;53.362;-6.288;2023-07-31T15:32:44;7.38;;;3.00;;
42586;SDS011;28216;53.362;-6.288;2023-07-31T15:35:13;6.45;;;2.72;;
42586;SDS011;28216;53.362;-6.288;2023-07-31T15:37:39;8.90;;;2.80;;
42586;SDS011;28216;53.362;-6.288;2023-07-31T15:40:04;6.93;;;2.38;;
42586;SDS011;28216;53.362;-6.288;2023-07-31T15:42:30;6.07;;;2.60;;
42586;SDS011;28216;53.362;-6.288;2023-07-31T15:44:59;7.45;;;2.45;;
42586;SDS011;28216;53.362;-6.288;2023-07-31T15:47:25;7.75;;;2.53;;
42586;SDS011;28216;53.362;-6.288;2023-07-31T15:49:50;7.07;;;2.22;;